CW5456 Weather Reports


Display with metric or nautical units.
time (UTC)temp
F
wind
direction
speed
MPH
gust
MPH
rain 1hr
in
rain 24hr
in
rain mn
in
humidity
%
barometer
mb
20171213150004 42 26 6.0 9.0 0.00 0.00 0.00 96 1029.0
20171213145003 41 31 2.0 7.0 0.00 0.00 0.00 95 1029.0
20171213144003 41 29 1.0 4.0 0.00 0.00 0.00 94 1028.8
20171213143003 41 29 1.0 4.0 0.00 0.00 0.00 93 1028.8
20171213142006 42 18 3.0 10.0 0.00 0.00 0.00 94 1028.8
20171213141002 42 25 0.0 6.0 0.00 0.00 0.00 93 1029.0
20171213140002 43 23 4.0 7.0 0.00 0.00 0.00 92 1029.2
20171213135005 43 23 5.0 7.0 0.00 0.00 0.00 92 1029.1
20171213134002 44 12 6.0 9.0 0.00 0.00 0.00 92 1029.0
20171213133001 44 8 7.0 9.0 0.00 0.00 0.00 91 1028.9
20171213132001 44 37 6.0 11.0 0.00 0.00 0.00 91 1028.7
20171213131003 44 17 7.0 12.0 0.00 0.00 0.00 91 1028.7
20171213130004 45 1 11.0 16.0 0.00 0.00 0.00 89 1028.6
20171213125000 46 294 12.0 18.0 0.00 0.00 0.00 87 1028.5
20171213123959 47 283 13.0 17.0 0.00 0.00 0.00 88 1028.5
20171213123002 46 332 13.0 17.0 0.00 0.00 0.00 90 1028.5
20171213121959 46 337 10.0 14.0 0.00 0.00 0.00 91 1028.6
20171213121028 45 349 10.0 14.0 0.00 0.00 0.00 91 1028.6
20171213120028 45 349 12.0 14.0 0.00 0.00 0.00 92 1028.7
20171213115031 46 356 10.0 17.0 0.00 0.00 0.00 90 1028.5
20171213113958 46 337 15.0 19.0 0.00 0.00 0.00 87 1028.6
20171213113001 44 342 5.0 8.0 0.00 0.00 0.00 92 1028.9
20171213112027 44 6 6.0 9.0 0.00 0.00 0.00 92 1028.8
20171213111027 43 26 5.0 6.0 0.00 0.00 0.00 93 1028.6
20171213110026 43 33 1.0 7.0 0.00 0.00 0.00 93 1028.5
20171213104959 43 20 6.0 6.0 0.00 0.00 0.00 93 1028.5
20171213104029 42 27 5.0 6.0 0.00 0.00 0.00 93 1028.3
20171213103025 43 27 0.0 5.0 0.00 0.00 0.00 90 1028.3
20171213102025 44 27 2.0 6.0 0.00 0.00 0.00 90 1028.6
20171213101025 44 10 5.0 6.0 0.00 0.00 0.00 91 1028.5
20171213100025 44 14 5.0 7.0 0.00 0.00 0.00 91 1028.7
20171213095024 44 12 6.0 7.0 0.00 0.00 0.00 90 1028.8
20171213094024 45 27 1.0 9.0 0.00 0.00 0.00 90 1028.3
20171213093026 45 4 5.0 10.0 0.00 0.00 0.00 90 1028.6
20171213092024 45 14 7.0 13.0 0.00 0.00 0.00 89 1028.8
20171213091026 46 347 10.0 12.0 0.00 0.00 0.00 89 1029.0
20171213090023 46 332 10.0 12.0 0.00 0.00 0.00 88 1028.7
20171213085022 46 327 6.0 13.0 0.00 0.00 0.00 88 1028.9
20171213084025 46 337 11.0 14.0 0.00 0.00 0.00 89 1029.1
20171213083022 45 332 10.0 17.0 0.00 0.00 0.00 90 1029.3
20171213082021 45 347 11.0 12.0 0.00 0.00 0.00 88 1029.3
20171213081021 45 349 10.0 13.0 0.00 0.00 0.00 87 1029.4
20171213080022 45 354 11.0 13.0 0.00 0.00 0.00 87 1029.2
20171213075020 46 356 11.0 16.0 0.00 0.00 0.00 88 1029.2
20171213074020 46 327 9.0 16.0 0.00 0.00 0.00 89 1029.5
20171213073023 46 307 10.0 18.0 0.00 0.00 0.00 89 1029.5
20171213072022 46 309 13.0 21.0 0.00 0.00 0.00 88 1029.5
20171213071019 46 332 13.0 21.0 0.00 0.00 0.00 86 1029.5
20171213070020 46 327 13.0 18.0 0.00 0.00 0.00 86 1029.3
20171213065019 46 315 12.0 16.0 0.00 0.00 0.00 85 1029.1
20171213064018 46 337 12.0 16.0 0.00 0.00 0.00 88 1029.4
20171213063018 46 337 15.0 15.0 0.00 0.00 0.00 89 1029.2
20171213062018 46 332 10.0 15.0 0.00 0.00 0.00 90 1029.2
20171213061017 46 277 14.0 15.0 0.00 0.00 0.00 89 1029.2
20171213060017 45 332 11.0 13.0 0.00 0.00 0.00 90 1028.9
20171213055017 45 1 8.0 11.0 0.00 0.00 0.00 90 1028.6
20171213054016 45 342 10.0 12.0 0.00 0.00 0.00 90 1028.3
20171213053016 45 297 8.0 9.0 0.00 0.00 0.00 93 1028.2
20171213052016 44 351 5.0 7.0 0.00 0.00 0.00 92 1028.2
20171213051015 44 354 4.0 6.0 0.00 0.00 0.00 93 1028.1
20171213050015 43 8 5.0 6.0 0.00 0.00 0.00 95 1028.0
20171213045015 42 2 4.0 5.0 0.00 0.00 0.00 93 1027.8
20171213044015 42 337 0.0 4.0 0.00 0.00 0.00 92 1028.0
20171213043014 42 337 0.0 3.0 0.00 0.00 0.00 92 1028.0
20171213042014 43 337 0.0 5.0 0.00 0.00 0.00 91 1028.0
20171213041014 43 358 3.0 6.0 0.00 0.00 0.00 92 1027.9
20171213040016 42 359 4.0 6.0 0.00 0.00 0.00 93 1028.0
20171213035013 42 2 1.0 3.0 0.00 0.00 0.00 90 1028.1
20171213034013 43 2 1.0 5.0 0.00 0.00 0.00 88 1028.4
20171213033013 44 353 1.0 7.0 0.00 0.00 0.00 88 1028.4
20171213032012 45 351 5.0 12.0 0.00 0.00 0.00 88 1028.3
20171213031012 43 332 12.0 12.0 0.00 0.00 0.00 88 1028.2
20171213030011 41 347 9.0 9.0 0.00 0.00 0.00 90 1028.3
20171213025014 43 332 2.0 8.0 0.00 0.00 0.00 86 1028.6
20171213024014 44 312 8.0 12.0 0.00 0.00 0.00 85 1028.6
20171213023013 45 288 10.0 13.0 0.00 0.00 0.00 83 1028.6
20171213022010 45 281 11.0 11.0 0.00 0.00 0.00 84 1028.5
20171213021010 45 332 6.0 11.0 0.00 0.00 0.00 86 1028.7
20171213020013 43 347 8.0 10.0 0.00 0.00 0.00 92 1028.6
20171213015010 41 297 5.0 7.0 0.00 0.00 0.00 92 1028.8
20171213014012 41 312 0.0 2.0 0.00 0.00 0.00 92 1028.7
20171213013012 42 312 0.0 4.0 0.00 0.00 0.00 89 1028.8
20171213012009 43 327 0.0 8.0 0.00 0.00 0.00 86 1028.6
20171213011011 44 337 8.0 9.0 0.00 0.00 0.00 87 1028.7
20171213010008 44 284 6.0 10.0 0.00 0.00 0.00 87 1028.7
20171213005010 45 295 3.0 10.0 0.00 0.00 0.00 86 1028.6
20171213004012 42 289 8.0 9.0 0.00 0.00 0.00 90 1028.6
20171213003011 41 246 2.0 4.0 0.00 0.00 0.00 89 1028.7
20171213002007 42 327 1.0 3.0 0.00 0.00 0.00 88 1028.7
20171213001006 42 327 0.0 2.0 0.00 0.00 0.00 87 1028.7
20171213000009 42 327 2.0 3.0 0.00 0.00 0.00 86 1028.8
20171212235006 43 327 1.0 4.0 0.00 0.00 0.00 86 1028.7
20171212234006 43 309 0.0 4.0 0.00 0.00 0.00 85 1028.7
20171212233005 43 308 1.0 4.0 0.00 0.00 0.00 85 1028.8
20171212232005 43 58 0.0 2.0 0.00 0.00 0.00 84 1028.7
20171212231005 44 58 0.0 3.0 0.00 0.00 0.00 83 1028.6
20171212230007 44 58 0.0 2.0 0.00 0.00 0.00 81 1028.6
20171212225007 44 58 0.0 2.0 0.00 0.00 0.00 82 1028.7
20171212224004 44 58 0.0 2.0 0.00 0.00 0.00 81 1028.7
20171212223003 44 58 1.0 3.0 0.00 0.00 0.00 82 1028.8
20171212222006 44 102 2.0 2.0 0.00 0.00 0.00 82 1028.9
20171212221003 45 102 2.0 3.0 0.00 0.00 0.00 82 1028.9
20171212220002 45 102 1.0 2.0 0.00 0.00 0.00 81 1029.0
20171212215002 45 102 0.0 1.0 0.00 0.00 0.00 81 1029.1
20171212214002 45 102 0.0 0.0 0.00 0.00 0.00 81 1029.3
20171212213002 46 102 0.0 0.0 0.00 0.00 0.00 81 1029.4
20171212212001 46 102 0.0 3.0 0.00 0.00 0.00 81 1029.4
20171212211031 46 102 0.0 3.0 0.00 0.00 0.00 79 1029.6
20171212210016 46 102 1.0 4.0 0.00 0.00 0.00 80 1029.7
20171212205019 46 128 0.0 5.0 0.00 0.00 0.00 79 1029.8
20171212204016 45 128 0.0 3.0 0.00 0.00 0.00 82 1029.9
20171212203015 45 128 0.0 5.0 0.00 0.00 0.00 81 1030.0
20171212202015 44 132 0.0 2.0 0.00 0.00 0.00 85 1030.4
20171212201014 44 132 0.0 0.0 0.00 0.00 0.00 87 1030.5
20171212200014 44 132 0.0 2.0 0.00 0.00 0.00 85 1030.6
20171212195017 45 133 0.0 1.0 0.00 0.00 0.00 82 1030.7
20171212194013 45 133 0.0 2.0 0.00 0.00 0.00 86 1030.8
20171212193013 43 132 0.0 4.0 0.00 0.00 0.00 88 1030.9
20171212192013 43 133 4.0 4.0 0.00 0.00 0.00 88 1031.0
20171212191013 43 136 2.0 4.0 0.00 0.00 0.00 90 1031.1
20171212190012 43 136 0.0 4.0 0.00 0.00 0.00 90 1031.0
20171212185012 42 136 2.0 5.0 0.00 0.00 0.00 89 1031.1
20171212184012 42 144 2.0 5.0 0.00 0.00 0.00 92 1031.1
20171212183015 42 145 2.0 5.0 0.00 0.00 0.00 92 1031.1
20171212182011 41 147 3.0 5.0 0.00 0.00 0.00 92 1031.1
20171212181014 41 145 3.0 5.0 0.00 0.00 0.00 93 1031.1
20171212180010 41 139 3.0 4.0 0.00 0.00 0.00 93 1031.0
20171212175011 41 139 3.0 4.0 0.00 0.00 0.00 94 1031.1
20171212174013 40 139 0.0 5.0 0.00 0.00 0.00 94 1031.0
20171212173010 40 139 3.0 5.0 0.00 0.00 0.00 94 1031.0
20171212172010 40 139 4.0 5.0 0.00 0.00 0.00 94 1031.0
20171212171009 40 143 4.0 6.0 0.00 0.00 0.00 94 1030.9
20171212170012 39 140 4.0 6.0 0.00 0.00 0.00 93 1030.8
20171212165006 39 138 5.0 5.0 0.00 0.00 0.00 92 1030.7
20171212164006 39 148 2.0 5.0 0.00 0.00 0.00 92 1030.7
20171212163006 39 137 2.0 5.0 0.00 0.00 0.00 89 1030.6
20171212162005 39 131 2.0 2.0 0.00 0.00 0.00 91 1030.7
20171212161005 39 131 0.0 1.0 0.00 0.00 0.00 91 1030.3
20171212160007 38 131 0.0 2.0 0.00 0.00 0.00 90 1030.4
20171212155005 38 131 2.0 4.0 0.00 0.00 0.00 93 1030.3
20171212154007 38 132 2.0 4.0 0.00 0.00 0.00 94 1030.2
20171212153004 38 131 2.0 4.0 0.00 0.00 0.00 95 1030.2
20171212152003 38 131 4.0 4.0 0.00 0.00 0.00 95 1030.3
20171212151003 38 131 2.0 6.0 0.00 0.00 0.00 95 1030.3